Airfield :
LOGIN :

Register | Disclaimer

   EN    FR    IT 

 










Legend :    VFR   Marginal VFR   IFR   Intensive IFR   Very Intensive IFR
Visi :
Ceiling :
>= 8 km
>= 3000ft
5 to 8 km
1000 to 3000 ft
1500m to 5 km
500 to 1000 ft
800 to 1500m
200 to 500 ft
< 800m
< 200 ft
Symbols :   Thunderstorms  Fog  Heavy snow  Heavy precipitations  Wind > 20 kt
SIGMETs :     Misc.  Thunderstorms  Icing  Turbulence  Mountain Waves  Volcanic Ashes






- Airport Elevation : 1273 ft
- IATA code : LJU


LJLJ - Ljubljana

CURRENT METAR :
  • 130430Z 07004KT 3000 BR SCT002 OVC023 M02/M03 Q0995 R30/59//94 NOSIG

EXPIRED METARs :
  • 130400Z 18002KT 2500 BR SCT002 OVC023 M02/M03 Q0996 R30/59//94 NOSIG
  • 130330Z VRB01KT 3000 -SN BR FEW005 OVC030 M02/M03 Q0996 R30/19//95 NOSIG
  • 130300Z VRB01KT 3000 -SN BR FEW005 OVC030 M02/M03 Q0997 R30/19//95 NOSIG
  • 130230Z VRB01KT 3000 -SN BR FEW005 OVC035 M02/M03 Q0998 R30/19//95 NOSIG
  • 130200Z 11001KT 3000 -SN BR FEW005 OVC035 M02/M03 Q0998 R30/19//95 NOSIG

TAF AMD TAF LJLJ
Valid from the 13 at 04:00 until the 14 at 03:00 UTC


130415Z 1304/1403 VRB02KT 2500 BR SCT010 OVC035
BECMG 1306/1309 6000 NSW
BECMG 1309/1311 5000 RASN BR OVC025
TEMPO 1309/1324 2500 SN BR OVC012
PROB40
TEMPO 1318/1322 0700 +SN VV003
BECMG 1401/1403 10003KT 7000 NSW SCT010 BKN100



MET'MAP, your aeronautical weather chart ! - Copyright ORBIFLY December 2007 - Disclaimer

ORBIFLY MET'MAP TEAM :

Programming & Development : Alexandra Zaïnal
Concept & original design : Baudouin d'Aumeries
Assistance for programming : Marc-Olivier Méhu
Technical & hardware support : Manuel Goepfert

Contact : metmap@orbifly.com




SOURCES & CREDITS :

   NOAA